Parkhill, Canada
Current Conditions -  °F | °C
As of 11:00 PM on Thursday 18 Dec 2014 (Local Time) from CYXU Reporting Station
Light Snow Light Snow  
Wind Chill: 19°   Ceiling: 1300
Heat Index: 27°   Visibility: 15mi
Dew Point: 25°   Wind: 7mph
Humidity: 93%   Direction: 310°NW
Pressure: 30.11"   Gusts: NA
Location:  43.17°N, 81.68°W
Report Text: CYXU 190400Z 31006KT 15SM -SN FEW008 OVC013 M03/M04 A3011 RMK SF1SC7 SLP210
Loading
Personal Weather Stations






























Interactive Weather Map New forecast layout! Learn more

10-Day Weather Forecast

Advertisements
Track Severe Weather on mobile